createdAt,value
2018-07-14T00:01:12.232Z,4.87
2018-07-14T00:03:41.260Z,6.53
2018-07-14T00:06:10.503Z,7.23
2018-07-14T00:08:39.828Z,7.07
2018-07-14T00:11:09.324Z,8.53
2018-07-14T00:13:37.860Z,7.90
2018-07-14T00:16:06.519Z,7.33
2018-07-14T00:18:35.112Z,6.43
2018-07-14T00:21:03.623Z,6.30
2018-07-14T00:23:32.917Z,6.40
2018-07-14T00:26:02.646Z,5.17
2018-07-14T00:28:33.020Z,5.60
2018-07-14T00:31:01.532Z,6.03
2018-07-14T00:33:31.497Z,4.93
2018-07-14T00:36:00.819Z,5.60
2018-07-14T00:38:29.786Z,4.93
2018-07-14T00:40:59.048Z,6.07
2018-07-14T00:43:28.280Z,5.70
2018-07-14T00:45:57.515Z,5.00
2018-07-14T00:48:26.756Z,5.10
2018-07-14T00:50:56.004Z,5.00
2018-07-14T00:53:25.173Z,4.43
2018-07-14T00:55:53.804Z,4.50
2018-07-14T00:58:22.815Z,4.00
2018-07-14T01:00:51.893Z,4.00
2018-07-14T01:03:20.878Z,3.73
2018-07-14T01:05:50.139Z,3.30
2018-07-14T01:08:19.373Z,3.80
2018-07-14T01:10:48.575Z,3.90
2018-07-14T01:13:17.592Z,3.73
2018-07-14T01:15:46.910Z,3.60
2018-07-14T01:18:16.072Z,3.50
2018-07-14T01:20:45.088Z,3.77
2018-07-14T01:23:14.157Z,3.43
2018-07-14T01:25:43.641Z,3.67
2018-07-14T01:28:12.963Z,3.90
2018-07-14T01:30:42.181Z,4.00
2018-07-14T01:33:11.183Z,4.00
2018-07-14T01:35:40.227Z,3.90
2018-07-14T01:38:09.487Z,3.93
2018-07-14T01:40:38.772Z,4.00
2018-07-14T01:43:07.938Z,4.43
2018-07-14T01:45:36.962Z,4.10
2018-07-14T01:48:06.001Z,3.97
2018-07-14T01:50:35.208Z,4.40
2018-07-14T01:53:03.764Z,3.90
2018-07-14T01:55:33.472Z,4.03
2018-07-14T01:58:02.695Z,3.83
2018-07-14T02:00:31.930Z,3.90
2018-07-14T02:03:00.907Z,4.10
2018-07-14T02:05:30.173Z,3.80
2018-07-14T02:07:59.415Z,3.67
2018-07-14T02:10:28.640Z,3.67
2018-07-14T02:12:58.051Z,3.70
2018-07-14T02:15:27.279Z,3.97
2018-07-14T02:17:56.520Z,3.63
2018-07-14T02:20:25.699Z,3.30
2018-07-14T02:22:54.956Z,3.97
2018-07-14T02:25:24.180Z,4.10
2018-07-14T02:27:53.718Z,4.07
2018-07-14T02:30:22.832Z,3.77
2018-07-14T02:32:52.281Z,3.60
2018-07-14T02:35:21.256Z,4.03
2018-07-14T02:37:50.519Z,3.60
2018-07-14T02:40:19.726Z,3.37
2018-07-14T02:42:48.277Z,4.07
2018-07-14T02:45:17.599Z,3.33
2018-07-14T02:47:46.600Z,3.43
2018-07-14T02:50:15.860Z,3.30
2018-07-14T02:52:45.084Z,3.60
2018-07-14T02:55:14.311Z,3.33
2018-07-14T02:57:43.531Z,3.40
2018-07-14T03:00:13.061Z,3.63
2018-07-14T03:02:42.168Z,3.20
2018-07-14T03:05:11.392Z,3.33
2018-07-14T03:07:40.620Z,3.47
2018-07-14T03:10:09.933Z,3.40
2018-07-14T03:12:38.435Z,3.20
2018-07-14T03:15:07.814Z,3.57
2018-07-14T03:17:37.227Z,3.63
2018-07-14T03:20:06.570Z,3.80
2018-07-14T03:22:35.802Z,3.47
2018-07-14T03:25:04.825Z,3.37
2018-07-14T03:27:34.038Z,3.97
2018-07-14T03:30:03.276Z,4.03
2018-07-14T03:32:32.717Z,4.50
2018-07-14T03:35:01.917Z,5.37
2018-07-14T03:37:31.139Z,5.83
2018-07-14T03:40:00.375Z,6.00
2018-07-14T03:42:29.767Z,6.13
2018-07-14T03:44:59.027Z,5.70
2018-07-14T03:47:28.207Z,5.83
2018-07-14T03:49:57.260Z,5.90
2018-07-14T03:52:26.263Z,5.53
2018-07-14T03:54:55.528Z,5.93
2018-07-14T03:57:24.746Z,5.53
2018-07-14T03:59:53.797Z,6.37
2018-07-14T04:02:22.774Z,5.67
2018-07-14T04:04:51.876Z,5.60
2018-07-14T04:07:21.065Z,5.50
2018-07-14T04:09:50.295Z,5.93
2018-07-14T04:12:19.528Z,5.80
2018-07-14T04:14:48.036Z,5.63
2018-07-14T04:17:17.316Z,4.83
2018-07-14T04:19:46.603Z,6.20
2018-07-14T04:22:15.840Z,5.30
2018-07-14T04:24:45.064Z,5.63
2018-07-14T04:27:14.300Z,5.70
2018-07-14T04:29:43.690Z,5.53
2018-07-14T04:32:13.147Z,6.17
2018-07-14T04:34:42.477Z,5.30
2018-07-14T04:37:11.949Z,5.40
2018-07-14T04:39:41.711Z,5.90
2018-07-14T04:42:11.131Z,5.80
2018-07-14T04:44:40.278Z,5.40
2018-07-14T04:47:09.566Z,5.73
2018-07-14T04:49:38.821Z,6.93
2018-07-14T04:52:08.111Z,5.20
2018-07-14T04:54:37.143Z,5.43
2018-07-14T04:57:06.179Z,5.53
2018-07-14T04:59:35.399Z,5.47
2018-07-14T05:02:04.628Z,5.80
2018-07-14T05:04:33.873Z,6.00
2018-07-14T05:07:03.116Z,6.23
2018-07-14T05:09:32.355Z,5.97
2018-07-14T05:12:01.544Z,6.47
2018-07-14T05:14:31.530Z,6.03
2018-07-14T05:17:00.580Z,6.97
2018-07-14T05:19:29.803Z,6.03
2018-07-14T05:21:58.847Z,6.50
2018-07-14T05:24:28.056Z,6.30
2018-07-14T05:26:57.295Z,6.47
2018-07-14T05:29:26.510Z,6.57
2018-07-14T05:31:55.513Z,6.40
2018-07-14T05:34:24.886Z,12.43
2018-07-14T05:36:54.199Z,6.90
2018-07-14T05:39:23.405Z,5.63
2018-07-14T05:41:52.459Z,6.23
2018-07-14T05:44:21.433Z,6.83
2018-07-14T05:46:50.718Z,6.23
2018-07-14T05:49:19.919Z,6.37
2018-07-14T05:51:49.148Z,6.87
2018-07-14T05:54:18.330Z,6.30
2018-07-14T05:56:47.611Z,6.43
2018-07-14T05:59:16.823Z,6.70
2018-07-14T06:01:46.075Z,6.87
2018-07-14T06:04:15.282Z,6.47
2018-07-14T06:06:44.504Z,7.23
2018-07-14T06:09:13.728Z,6.73
2018-07-14T06:11:42.727Z,6.40
2018-07-14T06:14:11.833Z,6.10
2018-07-14T06:16:41.005Z,5.33
2018-07-14T06:19:10.232Z,5.40
2018-07-14T06:21:39.462Z,6.00
2018-07-14T06:24:07.972Z,5.20
2018-07-14T06:26:37.120Z,6.60
2018-07-14T06:29:06.371Z,5.93
2018-07-14T06:31:35.571Z,5.03
2018-07-14T06:34:04.839Z,5.67
2018-07-14T06:36:34.251Z,5.30
2018-07-14T06:39:04.076Z,5.73
2018-07-14T06:41:33.262Z,4.83
2018-07-14T06:44:02.511Z,4.83
2018-07-14T06:46:31.559Z,4.60
2018-07-14T06:49:00.524Z,4.50
2018-07-14T06:51:29.583Z,5.03
2018-07-14T06:53:58.803Z,5.03
2018-07-14T06:56:28.044Z,5.00
2018-07-14T06:58:57.260Z,4.13
2018-07-14T07:01:26.660Z,4.40
2018-07-14T07:03:55.929Z,4.00
2018-07-14T07:06:25.153Z,4.53
2018-07-14T07:08:54.123Z,4.43
2018-07-14T07:11:23.395Z,4.50
2018-07-14T07:13:52.484Z,3.83
2018-07-14T07:16:21.672Z,6.40
2018-07-14T07:18:50.927Z,4.57
2018-07-14T07:21:20.111Z,3.93
2018-07-14T07:23:49.323Z,3.93
2018-07-14T07:26:18.557Z,3.70
2018-07-14T07:28:47.803Z,4.23
2018-07-14T07:31:17.000Z,4.40
2018-07-14T07:33:46.252Z,3.87
2018-07-14T07:36:15.453Z,3.63
2018-07-14T07:38:44.703Z,3.97
2018-07-14T07:41:13.674Z,3.90
2018-07-14T07:43:42.713Z,4.20
2018-07-14T07:46:11.966Z,3.83
2018-07-14T07:48:41.203Z,4.63
2018-07-14T07:51:10.556Z,3.57
2018-07-14T07:53:39.617Z,3.63
2018-07-14T07:56:08.864Z,3.10
2018-07-14T07:58:38.096Z,3.77
2018-07-14T08:01:07.129Z,4.00
2018-07-14T08:03:36.352Z,3.10
2018-07-14T08:06:05.941Z,3.40
2018-07-14T08:08:35.223Z,3.37
2018-07-14T08:11:04.418Z,3.27
2018-07-14T08:13:33.476Z,3.50
2018-07-14T08:16:02.888Z,3.60
2018-07-14T08:18:32.270Z,3.50
2018-07-14T08:21:01.347Z,3.40
2018-07-14T08:23:30.839Z,3.40
2018-07-14T08:26:00.192Z,3.60
2018-07-14T08:28:29.413Z,3.47
2018-07-14T08:30:58.683Z,3.50
2018-07-14T08:33:27.875Z,3.73
2018-07-14T08:35:57.244Z,3.77
2018-07-14T08:38:26.495Z,3.30
2018-07-14T08:40:55.756Z,3.93
2018-07-14T08:43:24.923Z,3.83
2018-07-14T08:45:54.181Z,4.20
2018-07-14T08:48:23.403Z,3.60
2018-07-14T08:50:52.464Z,4.73
2018-07-14T08:53:21.671Z,4.40
2018-07-14T08:55:51.300Z,3.63
2018-07-14T08:58:24.651Z,3.60
2018-07-14T09:00:53.861Z,3.73
2018-07-14T09:03:22.857Z,3.97
2018-07-14T09:05:51.896Z,3.93
2018-07-14T09:08:21.145Z,3.93
2018-07-14T09:10:50.363Z,3.87
2018-07-14T09:13:19.617Z,3.83
2018-07-14T09:15:48.601Z,3.47
2018-07-14T09:18:17.845Z,3.60
2018-07-14T09:20:46.820Z,3.57
2018-07-14T09:23:15.891Z,4.00
2018-07-14T09:25:45.207Z,3.93
2018-07-14T09:28:14.410Z,4.17
2018-07-14T09:30:43.355Z,3.97
2018-07-14T09:33:12.631Z,3.73
2018-07-14T09:35:41.647Z,3.67
2018-07-14T09:38:10.841Z,3.97
2018-07-14T09:40:39.907Z,3.67
2018-07-14T09:43:09.126Z,3.83
2018-07-14T09:45:38.362Z,3.60
2018-07-14T09:48:07.575Z,3.77
2018-07-14T09:50:36.827Z,5.37
2018-07-14T09:53:06.058Z,4.33
2018-07-14T09:55:35.252Z,4.40
2018-07-14T09:58:04.476Z,4.20
2018-07-14T10:00:34.063Z,4.53
2018-07-14T10:03:03.832Z,4.80
2018-07-14T10:05:33.191Z,3.70
2018-07-14T10:08:02.373Z,3.70
2018-07-14T10:10:31.602Z,3.90
2018-07-14T10:13:00.907Z,3.97
2018-07-14T10:15:30.040Z,3.70
2018-07-14T10:17:59.275Z,4.23
2018-07-14T10:20:27.784Z,3.80
2018-07-14T10:22:56.934Z,3.80
2018-07-14T10:25:26.219Z,3.97
2018-07-14T10:27:55.780Z,3.87
2018-07-14T10:30:24.999Z,4.13
2018-07-14T10:32:54.363Z,3.93
2018-07-14T10:35:23.659Z,3.60
2018-07-14T10:37:52.876Z,3.60
2018-07-14T10:40:22.108Z,3.50
2018-07-14T10:42:51.119Z,4.03
2018-07-14T10:45:20.368Z,3.93
2018-07-14T10:47:49.618Z,3.70
2018-07-14T10:50:18.819Z,3.33
2018-07-14T10:52:48.010Z,4.10
2018-07-14T10:55:17.264Z,3.80
2018-07-14T10:57:46.488Z,3.53
2018-07-14T11:00:15.711Z,3.87
2018-07-14T11:02:44.956Z,4.10
2018-07-14T11:05:14.466Z,3.90
2018-07-14T11:07:43.973Z,3.70
2018-07-14T11:10:13.229Z,3.70
2018-07-14T11:12:42.433Z,3.60
2018-07-14T11:15:11.435Z,4.17
2018-07-14T11:17:40.775Z,4.17
2018-07-14T11:20:09.923Z,3.90
2018-07-14T11:22:39.170Z,4.13
2018-07-14T11:25:08.359Z,4.50
2018-07-14T11:27:37.387Z,3.83
2018-07-14T11:30:06.463Z,4.53
2018-07-14T11:32:35.485Z,4.37
2018-07-14T11:35:04.508Z,4.47
2018-07-14T11:37:33.381Z,4.20
2018-07-14T11:40:01.938Z,4.53
2018-07-14T11:42:31.204Z,3.50
2018-07-14T11:45:00.442Z,4.33
2018-07-14T11:47:29.437Z,4.50
2018-07-14T11:49:58.436Z,4.03
2018-07-14T11:52:27.469Z,3.90
2018-07-14T11:54:56.538Z,4.47
2018-07-14T11:57:25.375Z,3.87
2018-07-14T11:59:54.556Z,3.90
2018-07-14T12:02:23.785Z,3.80
2018-07-14T12:04:53.076Z,4.33
2018-07-14T12:07:22.332Z,4.43
2018-07-14T12:09:51.536Z,4.33
2018-07-14T12:12:20.884Z,3.73
2018-07-14T12:14:50.133Z,4.10
2018-07-14T12:17:19.191Z,3.83
2018-07-14T12:19:48.191Z,3.40
2018-07-14T12:22:17.264Z,3.50
2018-07-14T12:24:46.472Z,3.50
2018-07-14T12:27:15.692Z,3.63
2018-07-14T12:29:44.897Z,4.13
2018-07-14T12:32:13.904Z,3.53
2018-07-14T12:34:43.126Z,3.57
2018-07-14T12:37:12.392Z,3.60
2018-07-14T12:39:41.622Z,3.73
2018-07-14T12:42:11.399Z,3.60
2018-07-14T12:44:40.650Z,4.10
2018-07-14T12:47:09.675Z,3.77
2018-07-14T12:49:38.888Z,4.20
2018-07-14T12:52:08.142Z,3.80
2018-07-14T12:54:37.375Z,3.80
2018-07-14T12:57:06.581Z,3.43
2018-07-14T12:59:35.582Z,3.40
2018-07-14T13:02:04.602Z,3.50
2018-07-14T13:04:33.903Z,4.00
2018-07-14T13:07:03.116Z,3.90
2018-07-14T13:09:32.343Z,4.13
2018-07-14T13:12:01.536Z,3.70
2018-07-14T13:14:31.187Z,3.80
2018-07-14T13:17:00.396Z,3.63
2018-07-14T13:19:29.713Z,4.10
2018-07-14T13:21:58.660Z,3.87
2018-07-14T13:24:27.905Z,3.73
2018-07-14T13:26:57.099Z,3.30
2018-07-14T13:29:26.329Z,3.70
2018-07-14T13:31:55.565Z,3.70
2018-07-14T13:34:24.559Z,3.70
2018-07-14T13:36:53.931Z,4.07
2018-07-14T13:39:22.907Z,3.80
2018-07-14T13:41:51.431Z,3.67
2018-07-14T13:44:20.703Z,3.53
2018-07-14T13:46:49.984Z,3.90
2018-07-14T13:49:18.910Z,3.80
2018-07-14T13:51:48.054Z,3.93
2018-07-14T13:54:17.203Z,4.07
2018-07-14T13:56:46.331Z,3.70
2018-07-14T13:59:15.460Z,3.73
2018-07-14T14:01:44.512Z,3.03
2018-07-14T14:04:13.518Z,3.63
2018-07-14T14:06:42.740Z,3.70
2018-07-14T14:09:11.985Z,3.83
2018-07-14T14:11:41.167Z,3.13
2018-07-14T14:14:10.248Z,3.67
2018-07-14T14:16:39.457Z,3.40
2018-07-14T14:19:08.739Z,3.60
2018-07-14T14:21:37.909Z,3.30
2018-07-14T14:24:06.899Z,3.27
2018-07-14T14:26:35.961Z,3.00
2018-07-14T14:29:04.962Z,3.30
2018-07-14T14:31:34.214Z,3.40
2018-07-14T14:34:03.452Z,3.70
2018-07-14T14:36:32.667Z,3.27
2018-07-14T14:39:02.068Z,3.20
2018-07-14T14:41:31.311Z,3.40
2018-07-14T14:44:00.228Z,3.43
2018-07-14T14:46:29.383Z,3.27
2018-07-14T14:48:58.631Z,3.53
2018-07-14T14:51:27.886Z,3.20
2018-07-14T14:53:57.080Z,3.60
2018-07-14T14:56:26.274Z,3.63
2018-07-14T14:58:55.515Z,3.13
2018-07-14T15:01:24.773Z,3.77
2018-07-14T15:03:53.959Z,3.30
2018-07-14T15:06:22.968Z,3.57
2018-07-14T15:08:52.385Z,3.57
2018-07-14T15:11:21.642Z,3.37
2018-07-14T15:13:50.859Z,3.70
2018-07-14T15:16:19.919Z,3.70
2018-07-14T15:18:48.893Z,3.73
2018-07-14T15:21:18.157Z,3.60
2018-07-14T15:23:47.436Z,3.57
2018-07-14T15:26:16.600Z,3.77
2018-07-14T15:28:45.652Z,3.20
2018-07-14T15:31:14.652Z,3.20
2018-07-14T15:33:43.647Z,3.70
2018-07-14T15:36:12.677Z,3.43
2018-07-14T15:38:42.021Z,3.47
2018-07-14T15:41:11.393Z,3.53
2018-07-14T15:43:40.596Z,3.93
2018-07-14T15:46:10.012Z,3.77
2018-07-14T15:48:39.436Z,3.47
2018-07-14T15:51:08.678Z,3.83
2018-07-14T15:53:37.884Z,3.50
2018-07-14T15:56:07.144Z,3.70
2018-07-14T15:58:36.336Z,3.47
2018-07-14T16:01:05.573Z,3.27
2018-07-14T16:03:34.804Z,3.20
2018-07-14T16:06:03.808Z,3.33
2018-07-14T16:08:33.072Z,3.20
2018-07-14T16:11:02.273Z,3.60
2018-07-14T16:13:31.516Z,3.83
2018-07-14T16:16:00.725Z,3.80
2018-07-14T16:18:29.959Z,3.43
2018-07-14T16:20:58.822Z,3.10
2018-07-14T16:23:27.962Z,5.40
2018-07-14T16:25:57.254Z,6.17
2018-07-14T16:28:26.523Z,7.20
2018-07-14T16:30:55.489Z,8.00
2018-07-14T16:33:24.736Z,11.97
2018-07-14T16:35:53.343Z,5.53
2018-07-14T16:38:21.895Z,4.70
2018-07-14T16:40:50.825Z,4.67
2018-07-14T16:43:19.335Z,4.80
2018-07-14T16:45:47.871Z,4.97
2018-07-14T16:48:16.499Z,5.00
2018-07-14T16:50:45.044Z,5.60
2018-07-14T16:53:13.585Z,5.03
2018-07-14T16:55:42.123Z,5.73
2018-07-14T16:58:10.661Z,5.37
2018-07-14T17:00:39.222Z,5.40
2018-07-14T17:03:07.739Z,5.73
2018-07-14T17:05:36.263Z,5.83
2018-07-14T17:08:04.791Z,6.50
2018-07-14T17:10:33.288Z,5.90
2018-07-14T17:13:01.811Z,6.13
2018-07-14T17:15:30.339Z,4.70
2018-07-14T17:17:58.861Z,5.13
2018-07-14T17:20:27.424Z,4.33
2018-07-14T17:22:55.953Z,4.90
2018-07-14T17:25:24.458Z,4.13
2018-07-14T17:27:52.974Z,4.47
2018-07-14T17:30:21.476Z,4.00
2018-07-14T17:32:50.349Z,4.80
2018-07-14T17:35:18.892Z,3.73
2018-07-14T17:37:47.436Z,4.80
2018-07-14T17:40:16.118Z,4.40
2018-07-14T17:42:44.643Z,4.70
2018-07-14T17:45:13.170Z,3.63
2018-07-14T17:47:41.895Z,3.50
2018-07-14T17:50:10.553Z,3.63
2018-07-14T17:52:39.207Z,3.80
2018-07-14T17:55:07.884Z,4.97
2018-07-14T17:57:37.814Z,4.67
2018-07-14T18:00:06.436Z,6.10
2018-07-14T18:02:35.104Z,4.23
2018-07-14T18:05:04.068Z,4.20
2018-07-14T18:07:32.631Z,4.20
2018-07-14T18:10:01.164Z,3.40
2018-07-14T18:12:29.723Z,3.50
2018-07-14T18:14:58.288Z,3.30
2018-07-14T18:17:26.920Z,3.53
2018-07-14T18:19:55.488Z,4.00
2018-07-14T18:22:24.053Z,4.07
2018-07-14T18:24:52.669Z,3.97
2018-07-14T18:27:21.253Z,3.90
2018-07-14T18:29:49.765Z,3.83
2018-07-14T18:32:18.275Z,5.80
2018-07-14T18:34:46.830Z,4.73
2018-07-14T18:37:15.585Z,5.23
2018-07-14T18:39:44.131Z,4.73
2018-07-14T18:42:12.644Z,4.40
2018-07-14T18:44:41.159Z,4.53
2018-07-14T18:47:09.735Z,10.87
2018-07-14T18:49:38.304Z,22.10
2018-07-14T18:52:07.088Z,19.17
2018-07-14T18:54:35.729Z,21.17
2018-07-14T18:57:04.352Z,25.37
2018-07-14T18:59:32.897Z,28.60
2018-07-14T19:02:01.468Z,27.43
2018-07-14T19:04:30.000Z,8.73
2018-07-14T19:06:58.572Z,8.73
2018-07-14T19:09:27.145Z,9.50
2018-07-14T19:11:55.787Z,6.50
2018-07-14T19:14:24.316Z,6.33
2018-07-14T19:16:52.861Z,8.23
2018-07-14T19:19:21.416Z,6.73
2018-07-14T19:21:49.928Z,6.30
2018-07-14T19:24:18.535Z,7.03
2018-07-14T19:26:47.050Z,6.90
2018-07-14T19:29:15.603Z,13.27
2018-07-14T19:31:44.103Z,17.07
2018-07-14T19:34:12.719Z,9.40
2018-07-14T19:36:41.395Z,8.93
2018-07-14T19:39:09.939Z,7.73
2018-07-14T19:41:38.594Z,9.17
2018-07-14T19:44:07.192Z,7.47
2018-07-14T19:46:35.750Z,7.07
2018-07-14T19:49:04.335Z,6.57
2018-07-14T19:51:32.863Z,6.27
2018-07-14T19:54:01.624Z,6.37
2018-07-14T19:56:30.171Z,6.83
2018-07-14T19:58:58.708Z,9.20
2018-07-14T20:01:27.207Z,7.63
2018-07-14T20:03:55.710Z,7.00
2018-07-14T20:06:24.250Z,7.40
2018-07-14T20:08:52.787Z,6.27
2018-07-14T20:11:21.339Z,7.20
2018-07-14T20:13:50.598Z,6.97
2018-07-14T20:16:19.126Z,6.90
2018-07-14T20:18:47.659Z,6.77
2018-07-14T20:21:16.366Z,6.80
2018-07-14T20:23:44.933Z,6.23
2018-07-14T20:26:13.435Z,6.07
2018-07-14T20:28:41.963Z,6.30
2018-07-14T20:31:10.479Z,6.57
2018-07-14T20:33:39.008Z,6.80
2018-07-14T20:36:07.540Z,6.67
2018-07-14T20:38:36.068Z,7.80
2018-07-14T20:41:04.571Z,7.37
2018-07-14T20:43:33.077Z,8.13
2018-07-14T20:46:01.645Z,7.93
2018-07-14T20:48:30.183Z,7.50
2018-07-14T20:50:58.687Z,8.07
2018-07-14T20:53:27.199Z,8.03
2018-07-14T20:55:55.875Z,8.80
2018-07-14T20:58:24.499Z,7.77
2018-07-14T21:00:53.044Z,8.27
2018-07-14T21:03:21.577Z,7.93
2018-07-14T21:05:50.092Z,7.70
2018-07-14T21:08:18.603Z,7.43
2018-07-14T21:10:47.142Z,8.13
2018-07-14T21:13:15.667Z,8.20
2018-07-14T21:15:44.191Z,8.10
2018-07-14T21:18:13.122Z,8.63
2018-07-14T21:20:41.728Z,8.10
2018-07-14T21:23:10.279Z,113.60
2018-07-14T21:25:38.800Z,16.53
2018-07-14T21:28:07.360Z,11.30
2018-07-14T21:30:35.952Z,9.93
2018-07-14T21:33:04.488Z,10.07
2018-07-14T21:35:33.046Z,9.37
2018-07-14T21:38:01.511Z,9.87
2018-07-14T21:40:30.071Z,8.97
2018-07-14T21:42:58.577Z,9.60
2018-07-14T21:45:27.133Z,9.60
2018-07-14T21:47:55.735Z,10.10
2018-07-14T21:50:24.318Z,10.50
2018-07-14T21:52:52.856Z,11.53
2018-07-14T21:55:21.504Z,10.53
2018-07-14T21:57:50.155Z,10.53
2018-07-14T22:00:24.995Z,11.07
2018-07-14T22:02:53.455Z,11.07
2018-07-14T22:05:22.020Z,12.00
2018-07-14T22:07:50.536Z,13.30
2018-07-14T22:10:19.429Z,24.57
2018-07-14T22:12:47.959Z,29.17
2018-07-14T22:15:16.560Z,32.30
2018-07-14T22:17:45.147Z,31.10
2018-07-14T22:20:13.742Z,32.00
2018-07-14T22:22:42.486Z,41.07
2018-07-14T22:25:11.015Z,38.50
2018-07-14T22:27:39.607Z,39.77
2018-07-14T22:30:08.150Z,42.70
2018-07-14T22:32:36.809Z,37.63
2018-07-14T22:35:05.464Z,37.37
2018-07-14T22:37:33.980Z,36.20
2018-07-14T22:40:02.601Z,30.17
2018-07-14T22:42:31.132Z,23.37
2018-07-14T22:44:59.695Z,18.03
2018-07-14T22:47:28.211Z,17.77
2018-07-14T22:49:56.739Z,15.17
2018-07-14T22:52:25.280Z,15.23
2018-07-14T22:54:54.314Z,14.20
2018-07-14T22:57:22.855Z,14.90
2018-07-14T22:59:51.527Z,11.63
2018-07-14T23:02:20.055Z,11.20
2018-07-14T23:04:48.608Z,10.43
2018-07-14T23:07:17.139Z,10.37
2018-07-14T23:09:45.655Z,11.13
2018-07-14T23:12:14.196Z,8.63
2018-07-14T23:14:42.715Z,9.50
2018-07-14T23:17:11.240Z,8.30
2018-07-14T23:19:39.760Z,9.00
2018-07-14T23:22:09.223Z,8.37
2018-07-14T23:24:37.682Z,7.60
2018-07-14T23:27:06.232Z,7.70
2018-07-14T23:29:34.769Z,8.07
2018-07-14T23:32:03.419Z,9.63
2018-07-14T23:34:31.940Z,10.07
2018-07-14T23:37:00.448Z,10.20
2018-07-14T23:39:29.008Z,10.57
2018-07-14T23:41:57.537Z,11.17
2018-07-14T23:44:26.071Z,9.83
2018-07-14T23:46:54.609Z,10.37
2018-07-14T23:49:23.212Z,9.07
2018-07-14T23:51:51.744Z,9.73
2018-07-14T23:54:20.269Z,9.13
2018-07-14T23:56:48.786Z,9.10
2018-07-14T23:59:17.380Z,9.60
